Naguabo, PR (00718)

12:53 PM AST on December 27, 2014 (GMT -0400)
Manejo de Emergencias Ceiba | Change Station
CLOSE
Current Station
Personal Weather Station
Location: Ceiba, PR
Elevation: 95 ft
Nearby Weather Stations
Active Advisory: High Surf Advisory

Elev 95 ft 18.26 °N, 65.65 °W | Updated 4 minutes ago

Clear
Clear
83.1 °F
Feels Like 87 °F
N
3.0
Wind Variable Wind from East
Gusts 9.0 mph

Today
High -- | Low -- °F
--% Chance of Precip.
Yesterday
High -- | Low -- °F
Precip. -- in
6:52 AM 5:55 PM
Waxing Crescent, 38% visible
Pressure 30.13 in
Visibility 10.0 miles
Clouds Clear
Heat Index 87 °F
Dew Point 70 °F
Humidity 64%
Rainfall -999.00 in
Snow Depth Not available.
UV 7 out of 12
Pollen Not available.
Air Quality Not available.
Flu Activity Not available.
METAR TJNR 271553Z AUTO 05008KT 10SM CLR 28/20 A3012 RMK AO2 SLP201 T02830200 $

More Conditions Fewer Conditions

Pressure 30.13 in
Visibility 10.0 miles
Clouds Clear
Heat Index 87 °F
Dew Point 70 °F
Humidity 64%
Rainfall -999.00 in
Snow Depth Not available.
UV 7 out of 12
Pollen Not available.
Air Quality Not available.
Flu Activity Not available.
METAR TJNR 271553Z AUTO 05008KT 10SM CLR 28/20 A3012 RMK AO2 SLP201 T02830200 $

More Conditions Fewer Conditions

10-Day Weather Forecast

Almanac

Astronomy

Dec. 27, 2014 Rise Set
Actual Time
Civil Twilight
Nautical Twilight
Astronomical Twilight
Moon
Length of Visible Light
Length of Day
Tomorrow will be .
, % of the Moon is Illuminated

Today's Extremes

State Highs State Lows

Community

WunderPhotos

Upload Photos

1,780,958 photos uploaded!

WunderBlogs® & News

Nearby

Air Quality

  Air Quality AQ Index Pollutant
Not available.

Snow Depth

Station Depth Elevation

Earthquake Activity

City Distance Mag. Time & Date
Minimum magnitude displayed is 2.5.

Coastal Water Temperatures

Place Temperature

Nearby Weather Stations